Time;durP1;ratioP1;P1;durP2;ratioP2;P2;SDS_P1;SDS_P2;PMS_P1;PMS_P2;Temp;Humidity;BMP_temperature;BMP_pressure;BME280_temperature;BME280_humidity;BME280_pressure;Samples;Min_cycle;Max_cycle;Signal;HPM_P1;HPM_P2
2022/12/05 00:00:07;;;;;;;86.05;16.25;;;1.80;99.90;;;;;;5053525;28;20021;-86
2022/12/05 00:02:45;;;;;;;262.88;23.83;;;1.80;99.90;;;;;;5073160;28;20039;-86
2022/12/05 00:05:11;;;;;;;30.00;14.73;;;1.80;99.90;;;;;;5086133;28;20071;-86
2022/12/05 00:07:38;;;;;;;105.15;21.63;;;1.80;99.90;;;;;;5084901;28;20652;-86
2022/12/05 00:10:05;;;;;;;62.67;24.45;;;1.80;99.90;;;;;;5080441;28;20048;-86
2022/12/05 00:12:31;;;;;;;92.43;24.45;;;1.90;99.90;;;;;;5061038;28;20043;-86
2022/12/05 00:14:56;;;;;;;98.82;23.27;;;1.90;99.90;;;;;;5073296;28;20032;-86
2022/12/05 00:17:22;;;;;;;169.70;22.50;;;1.90;99.90;;;;;;5066811;28;20040;-85
2022/12/05 00:19:48;;;;;;;35.38;15.30;;;1.90;99.90;;;;;;5064293;28;20079;-86
2022/12/05 00:22:14;;;;;;;53.40;18.00;;;2.00;99.90;;;;;;5083143;28;20052;-86
2022/12/05 00:24:39;;;;;;;95.57;22.40;;;2.00;99.90;;;;;;5067978;28;20024;-85
2022/12/05 00:27:52;;;;;;;184.73;32.65;;;2.00;99.90;;;;;;5062560;28;20098;-86
2022/12/05 00:30:17;;;;;;;105.00;28.30;;;2.00;99.90;;;;;;5069849;28;20044;-86
2022/12/05 00:32:43;;;;;;;142.63;27.52;;;1.90;99.90;;;;;;5072838;28;20131;-86
2022/12/05 00:35:08;;;;;;;129.32;26.58;;;1.90;99.90;;;;;;5061751;28;20028;-86
2022/12/05 00:37:34;;;;;;;113.07;24.73;;;1.90;99.90;;;;;;5057255;28;20309;-86
2022/12/05 00:40:00;;;;;;;61.35;21.17;;;2.00;99.90;;;;;;5051996;28;20032;-86
2022/12/05 00:42:25;;;;;;;79.65;19.40;;;2.00;99.90;;;;;;5069681;28;20353;-86
2022/12/05 00:44:51;;;;;;;174.65;26.15;;;1.90;99.90;;;;;;5082428;28;20464;-86
2022/12/05 00:47:17;;;;;;;227.45;31.00;;;1.90;99.90;;;;;;5072154;28;20785;-86
2022/12/05 00:49:42;;;;;;;129.18;26.52;;;1.90;99.90;;;;;;5079818;28;20582;-86
2022/12/05 00:52:08;;;;;;;111.70;26.27;;;2.00;99.90;;;;;;5067954;28;20024;-86
2022/12/05 00:54:34;;;;;;;305.90;31.25;;;1.90;99.90;;;;;;5057552;28;20115;-86
2022/12/05 00:56:59;;;;;;;346.95;33.22;;;2.00;99.90;;;;;;5067159;28;20498;-86
2022/12/05 00:59:25;;;;;;;192.65;25.75;;;1.90;99.90;;;;;;5085465;28;20107;-86
2022/12/05 01:01:51;;;;;;;103.35;21.13;;;1.90;99.90;;;;;;5072026;28;20066;-86
2022/12/05 01:04:22;;;;;;;189.35;25.58;;;1.90;99.90;;;;;;5061050;28;20116;-86
2022/12/05 01:06:49;;;;;;;179.32;23.10;;;1.90;99.90;;;;;;5074024;28;20123;-86
2022/12/05 01:09:17;;;;;;;296.50;26.92;;;1.90;99.90;;;;;;5071941;28;20262;-86
2022/12/05 01:11:43;;;;;;;172.75;22.13;;;2.00;99.90;;;;;;5072961;28;20021;-86
2022/12/05 01:14:10;;;;;;;158.30;21.33;;;1.90;99.90;;;;;;5052886;28;20436;-86
2022/12/05 01:16:38;;;;;;;155.45;22.88;;;2.00;99.90;;;;;;5068327;28;20108;-86
2022/12/05 01:19:13;;;;;;;130.85;18.65;;;1.90;99.90;;;;;;5052367;28;20675;-86
2022/12/05 01:21:39;;;;;;;357.00;26.40;;;1.90;99.90;;;;;;5063332;28;20098;-86
2022/12/05 01:24:05;;;;;;;250.18;27.92;;;1.90;99.90;;;;;;5047300;28;20488;-86
2022/12/05 01:26:31;;;;;;;200.73;22.20;;;1.80;99.90;;;;;;5062555;28;20056;-86
2022/12/05 01:28:56;;;;;;;398.05;31.35;;;1.80;99.90;;;;;;5068057;28;20020;-86
2022/12/05 01:31:24;;;;;;;169.18;21.83;;;1.80;99.90;;;;;;5058458;28;20692;-86
2022/12/05 01:33:50;;;;;;;133.18;21.88;;;1.80;99.90;;;;;;5067813;28;20032;-86
2022/12/05 01:36:17;;;;;;;136.05;19.85;;;1.90;99.90;;;;;;5068021;28;20423;-85
2022/12/05 01:39:05;;;;;;;225.55;23.70;;;1.90;99.90;;;;;;5071317;28;20024;-86
2022/12/05 01:41:34;;;;;;;94.95;21.25;;;1.90;99.90;;;;;;5080266;28;20480;-86
2022/12/05 01:44:10;;;;;;;42.95;17.27;;;1.80;99.90;;;;;;5086504;28;20029;-86
2022/12/05 01:46:38;;;;;;;46.30;17.13;;;1.80;99.90;;;;;;5066369;28;20039;-86
2022/12/05 01:49:25;;;;;;;254.93;25.83;;;1.80;99.90;;;;;;5051859;28;20025;-86
2022/12/05 01:51:53;;;;;;;399.02;32.47;;;1.90;99.90;;;;;;5065121;28;20046;-84
2022/12/05 01:54:21;;;;;;;469.55;30.50;;;1.90;99.90;;;;;;5065516;28;20131;-84
2022/12/05 01:56:51;;;;;;;448.00;35.88;;;1.80;99.90;;;;;;5071203;28;20032;-84
2022/12/05 01:59:20;;;;;;;132.57;19.35;;;1.80;99.90;;;;;;5067982;28;20024;-86
2022/12/05 02:01:46;;;;;;;191.55;23.88;;;1.80;99.90;;;;;;5071342;28;20029;-85
2022/12/05 02:04:12;;;;;;;166.48;23.25;;;1.80;99.90;;;;;;5065300;28;20025;-86
2022/12/05 02:06:38;;;;;;;87.70;18.83;;;1.90;99.90;;;;;;5070396;28;20029;-86
2022/12/05 02:09:04;;;;;;;113.63;19.98;;;1.80;99.90;;;;;;5069636;28;20028;-86
2022/12/05 02:11:31;;;;;;;256.02;26.00;;;1.80;99.90;;;;;;5059465;28;20035;-86
2022/12/05 02:14:23;;;;;;;710.53;44.40;;;1.80;99.90;;;;;;5067606;28;20115;-86
2022/12/05 02:17:11;;;;;;;340.00;28.48;;;1.80;99.90;;;;;;5071969;28;20033;-86
2022/12/05 02:19:58;;;;;;;597.53;40.80;;;1.80;99.90;;;;;;5066890;28;20051;-86
2022/12/05 02:22:54;;;;;;;286.55;26.63;;;1.80;99.90;;;;;;5075160;28;20035;-86
2022/12/05 02:25:44;;;;;;;193.93;29.25;;;1.80;99.90;;;;;;5088019;28;20124;-86
2022/12/05 02:28:31;;;;;;;63.05;21.83;;;1.80;99.90;;;;;;5072473;28;20032;-86
2022/12/05 02:31:09;;;;;;;72.60;22.17;;;1.80;99.90;;;;;;5078483;28;20029;-86
2022/12/05 02:33:42;;;;;;;64.32;22.50;;;1.80;99.90;;;;;;5069599;28;20510;-86
2022/12/05 02:36:16;;;;;;;58.13;22.88;;;1.70;99.90;;;;;;5073591;28;20494;-86
2022/12/05 02:38:56;;;;;;;67.05;22.73;;;1.70;99.90;;;;;;5077798;28;20028;-86
2022/12/05 02:41:21;;;;;;;61.92;22.23;;;1.70;99.90;;;;;;5062660;28;20490;-86
2022/12/05 02:43:53;;;;;;;66.70;25.27;;;1.70;99.90;;;;;;5073714;28;20029;-86
2022/12/05 02:46:22;;;;;;;;;;;1.70;99.90;;;;;;5082113;28;20021;-86
2022/12/05 02:48:53;;;;;;;333.60;35.15;;;1.70;99.90;;;;;;5081635;28;19912;-86
2022/12/05 02:51:22;;;;;;;458.47;38.30;;;1.70;99.90;;;;;;5049705;28;20055;-86
2022/12/05 02:53:50;;;;;;;144.32;26.27;;;1.70;99.90;;;;;;5067380;28;20119;-86
2022/12/05 02:56:17;;;;;;;574.17;47.95;;;1.70;99.90;;;;;;5070161;28;20439;-86
2022/12/05 02:58:54;;;;;;;737.20;58.92;;;1.70;99.90;;;;;;5065317;28;20020;-86
2022/12/05 03:01:29;;;;;;;607.88;51.55;;;1.70;99.90;;;;;;5074090;28;20047;-86
2022/12/05 03:03:56;;;;;;;1312.57;92.80;;;1.60;99.90;;;;;;5059967;28;20543;-86
2022/12/05 03:06:24;;;;;;;1123.20;83.95;;;1.60;99.90;;;;;;5070453;28;20032;-86
2022/12/05 03:09:01;;;;;;;511.42;48.70;;;1.50;99.90;;;;;;5054581;28;20537;-86
2022/12/05 03:11:36;;;;;;;606.20;52.47;;;1.50;99.90;;;;;;5078137;28;20492;-86
2022/12/05 03:14:05;;;;;;;630.13;52.33;;;1.50;99.90;;;;;;5086854;28;20539;-86
2022/12/05 03:16:38;;;;;;;814.00;61.35;;;1.50;99.90;;;;;;5072433;28;20036;-86
2022/12/05 03:19:16;;;;;;;841.13;60.03;;;1.50;99.90;;;;;;5074516;28;20607;-86
2022/12/05 03:21:51;;;;;;;532.22;42.90;;;1.50;99.90;;;;;;5068515;28;20103;-86
2022/12/05 03:24:17;;;;;;;675.80;51.33;;;1.50;99.90;;;;;;5086785;28;20028;-86
2022/12/05 03:27:13;;;;;;;134.38;24.73;;;1.50;99.90;;;;;;5073727;28;20834;-86
2022/12/05 03:30:06;;;;;;;236.50;28.38;;;1.40;99.90;;;;;;5083189;28;20125;-85
2022/12/05 03:32:36;;;;;;;98.55;29.17;;;1.50;99.90;;;;;;5055539;28;20033;-86
2022/12/05 03:35:25;;;;;;;345.30;35.33;;;1.50;99.90;;;;;;5074179;28;20032;-86
2022/12/05 03:38:02;;;;;;;108.57;23.90;;;1.40;99.90;;;;;;5063749;28;20056;-86
2022/12/05 03:40:37;;;;;;;116.25;24.88;;;1.40;99.90;;;;;;5074286;28;20036;-86
2022/12/05 03:43:29;;;;;;;366.13;37.78;;;1.40;99.90;;;;;;5068313;28;20067;-86
2022/12/05 03:46:16;;;;;;;294.90;29.20;;;1.40;99.90;;;;;;5069381;28;20036;-86
2022/12/05 03:48:56;;;;;;;244.80;28.45;;;1.40;99.90;;;;;;5057026;28;20029;-86
2022/12/05 03:51:27;;;;;;;265.47;28.97;;;1.40;99.90;;;;;;5080972;28;20021;-86
2022/12/05 03:54:05;;;;;;;299.15;33.47;;;1.40;99.90;;;;;;5082687;28;20020;-86
2022/12/05 03:56:57;;;;;;;664.25;49.42;;;1.30;99.90;;;;;;5082316;28;20033;-86
2022/12/05 03:59:38;;;;;;;332.77;32.50;;;1.40;99.90;;;;;;5054311;28;20086;-86
2022/12/05 04:02:12;;;;;;;552.72;46.15;;;1.40;99.90;;;;;;5064576;28;20648;-86
2022/12/05 04:05:04;;;;;;;733.47;51.00;;;1.30;99.90;;;;;;5072045;28;20455;-86
2022/12/05 04:07:33;;;;;;;249.80;27.30;;;1.30;99.90;;;;;;5066397;28;20056;-86
2022/12/05 04:10:03;;;;;;;366.40;37.00;;;1.30;99.90;;;;;;5076611;28;20404;-86
2022/12/05 04:12:31;;;;;;;239.23;30.30;;;1.30;99.90;;;;;;5068216;28;20116;-86
2022/12/05 04:15:02;;;;;;;291.80;35.08;;;1.30;99.90;;;;;;5065045;28;20040;-86
2022/12/05 04:17:37;;;;;;;376.05;39.38;;;1.30;99.90;;;;;;5065637;28;20033;-86
2022/12/05 04:23:06;;;;;;;209.30;31.30;;;1.30;99.90;;;;;;5071633;28;20027;-86
2022/12/05 04:25:41;;;;;;;388.38;39.58;;;1.30;99.90;;;;;;5051389;28;20051;-85
2022/12/05 04:28:10;;;;;;;198.68;28.10;;;1.30;99.90;;;;;;5072274;28;20021;-86
2022/12/05 04:30:44;;;;;;;173.18;26.95;;;1.30;99.90;;;;;;5063775;28;20029;-86
2022/12/05 04:33:15;;;;;;;369.23;36.55;;;1.30;99.90;;;;;;5073308;28;20024;-86
2022/12/05 04:35:58;;;;;;;299.63;31.23;;;1.30;99.90;;;;;;5068340;28;20037;-86
2022/12/05 04:38:31;;;;;;;100.05;23.42;;;1.30;99.90;;;;;;5073125;28;20039;-86
2022/12/05 04:41:01;;;;;;;102.78;23.67;;;1.30;99.90;;;;;;5064830;28;20029;-86
2022/12/05 04:43:29;;;;;;;103.97;23.83;;;1.20;99.90;;;;;;5055511;28;20035;-86
2022/12/05 04:45:57;;;;;;;456.92;39.15;;;1.20;99.90;;;;;;5064389;28;20029;-86
2022/12/05 04:48:26;;;;;;;174.82;24.85;;;1.20;99.90;;;;;;5054271;28;20044;-85
2022/12/05 04:50:58;;;;;;;155.27;25.23;;;1.20;99.90;;;;;;5070506;28;20516;-86
2022/12/05 04:53:28;;;;;;;197.73;27.42;;;1.20;99.90;;;;;;5068805;28;20108;-86
2022/12/05 04:55:57;;;;;;;246.40;29.65;;;1.20;99.90;;;;;;5072383;28;20026;-86
2022/12/05 04:58:25;;;;;;;84.57;23.63;;;1.20;99.90;;;;;;5060366;28;20024;-86
2022/12/05 05:01:13;;;;;;;88.63;24.08;;;1.20;99.90;;;;;;5075049;28;20073;-86
2022/12/05 05:03:51;;;;;;;112.75;25.63;;;1.20;99.90;;;;;;5045968;28;20041;-86
2022/12/05 05:06:17;;;;;;;124.75;27.75;;;1.20;99.90;;;;;;5069002;28;20041;-86
2022/12/05 05:08:51;;;;;;;98.13;24.13;;;1.30;99.90;;;;;;5053285;28;20086;-86
2022/12/05 05:11:23;;;;;;;96.00;24.33;;;1.20;99.90;;;;;;5070388;28;20479;-86
2022/12/05 05:13:50;;;;;;;122.90;27.02;;;1.20;99.90;;;;;;5061171;28;20036;-86
2022/12/05 05:16:19;;;;;;;100.35;25.67;;;1.20;99.90;;;;;;5070950;28;20060;-86
2022/12/05 05:18:46;;;;;;;120.57;26.40;;;1.30;99.90;;;;;;5065294;28;20032;-86
2022/12/05 05:21:24;;;;;;;97.32;23.98;;;1.30;99.90;;;;;;5063966;28;20407;-86
2022/12/05 05:23:50;;;;;;;172.00;28.35;;;1.30;99.90;;;;;;5083650;28;20494;-86
2022/12/05 05:26:17;;;;;;;85.47;23.05;;;1.30;99.90;;;;;;5071507;28;20032;-86
2022/12/05 05:28:43;;;;;;;409.02;38.47;;;1.30;99.90;;;;;;5069422;28;20024;-86
2022/12/05 05:31:09;;;;;;;578.58;44.92;;;1.40;99.90;;;;;;5065433;28;20044;-86
2022/12/05 05:33:35;;;;;;;226.00;31.10;;;1.30;99.90;;;;;;5073431;28;21014;-85
2022/12/05 05:36:03;;;;;;;137.88;25.77;;;1.30;99.90;;;;;;5075888;28;20032;-85
2022/12/05 05:38:28;;;;;;;105.22;24.65;;;1.30;99.90;;;;;;5051573;28;20028;-85
2022/12/05 05:40:54;;;;;;;101.82;25.15;;;1.30;99.90;;;;;;5069559;28;20023;-85
2022/12/05 05:43:20;;;;;;;94.78;28.38;;;1.30;99.90;;;;;;5078738;28;20055;-85
2022/12/05 05:45:45;;;;;;;94.78;25.52;;;1.40;99.90;;;;;;5064607;28;20498;-85
2022/12/05 05:48:11;;;;;;;79.80;27.38;;;1.40;99.90;;;;;;5064160;28;20025;-85
2022/12/05 05:50:37;;;;;;;86.00;26.92;;;1.40;99.90;;;;;;5072566;28;20054;-86
2022/12/05 05:53:10;;;;;;;105.85;31.92;;;1.40;99.90;;;;;;5083632;28;20112;-86
2022/12/05 05:55:39;;;;;;;152.85;46.85;;;1.40;99.90;;;;;;5074858;28;20056;-86
2022/12/05 05:58:05;;;;;;;162.90;46.67;;;1.30;99.90;;;;;;5075169;28;20102;-85
2022/12/05 06:00:31;;;;;;;149.52;41.10;;;1.40;99.90;;;;;;5080762;28;20032;-86
2022/12/05 06:02:56;;;;;;;169.50;33.53;;;1.40;99.90;;;;;;5076659;28;20049;-85
2022/12/05 06:05:22;;;;;;;181.57;35.28;;;1.40;99.90;;;;;;5064473;28;20642;-85
2022/12/05 06:07:48;;;;;;;222.57;31.30;;;1.40;99.90;;;;;;5054796;28;20041;-86
2022/12/05 06:10:13;;;;;;;146.10;31.65;;;1.40;99.90;;;;;;5053792;28;20043;-85
2022/12/05 06:12:39;;;;;;;156.60;28.40;;;1.40;99.90;;;;;;5074978;28;20103;-85
2022/12/05 06:15:06;;;;;;;162.43;29.15;;;1.40;99.90;;;;;;5067675;28;20037;-85
2022/12/05 06:17:31;;;;;;;103.32;28.05;;;1.40;99.90;;;;;;5074406;28;20476;-85
2022/12/05 06:19:57;;;;;;;111.03;29.45;;;1.50;99.90;;;;;;5071497;28;20025;-86
2022/12/05 06:22:23;;;;;;;187.48;44.15;;;1.40;99.90;;;;;;5070157;28;20032;-85
2022/12/05 06:25:19;;;;;;;163.05;51.03;;;1.50;99.90;;;;;;5056295;28;20035;-86
2022/12/05 06:27:45;;;;;;;137.95;40.83;;;1.50;99.90;;;;;;5057684;28;20537;-85
2022/12/05 06:30:11;;;;;;;121.65;31.70;;;1.50;99.90;;;;;;5066697;28;20052;-85
2022/12/05 06:32:36;;;;;;;133.23;27.48;;;1.40;99.90;;;;;;5074311;28;20035;-86
2022/12/05 06:35:09;;;;;;;223.48;32.92;;;1.40;99.90;;;;;;5074556;28;20039;-85
2022/12/05 06:37:37;;;;;;;87.35;25.15;;;1.40;99.90;;;;;;5070124;28;20100;-86
2022/12/05 06:40:03;;;;;;;261.48;33.13;;;1.40;99.90;;;;;;5074423;28;20102;-85
2022/12/05 06:42:30;;;;;;;160.25;28.90;;;1.40;99.90;;;;;;5073866;28;20032;-85
2022/12/05 06:44:56;;;;;;;174.43;28.88;;;1.40;99.90;;;;;;5062952;28;20170;-85
2022/12/05 06:47:21;;;;;;;697.03;52.55;;;1.40;99.90;;;;;;5061861;28;20111;-85
2022/12/05 06:49:47;;;;;;;433.08;38.75;;;1.30;99.90;;;;;;5073429;28;20032;-85
2022/12/05 06:52:13;;;;;;;718.05;49.70;;;1.20;99.90;;;;;;5053116;28;20621;-86
2022/12/05 06:54:38;;;;;;;642.22;42.83;;;1.20;99.90;;;;;;5073235;28;20033;-85
2022/12/05 06:57:04;;;;;;;497.60;41.28;;;1.20;99.90;;;;;;5067420;28;20502;-85
2022/12/05 06:59:30;;;;;;;566.20;44.20;;;1.20;99.90;;;;;;5073671;28;20095;-85
2022/12/05 07:01:56;;;;;;;683.85;54.55;;;1.20;99.90;;;;;;5053449;28;20056;-85
2022/12/05 07:04:23;;;;;;;925.42;61.78;;;1.20;99.90;;;;;;5067017;28;20024;-85
2022/12/05 07:06:50;;;;;;;997.88;69.75;;;1.20;99.90;;;;;;5056324;28;20040;-87
2022/12/05 07:09:17;;;;;;;864.95;63.28;;;1.20;99.90;;;;;;5067757;28;20032;-88
2022/12/05 07:11:49;;;;;;;1014.83;71.93;;;1.20;99.90;;;;;;5081870;28;20060;-88
2022/12/05 07:14:16;;;;;;;874.25;65.75;;;1.20;99.90;;;;;;5077988;28;20491;-87
2022/12/05 07:16:42;;;;;;;1029.13;69.55;;;1.30;99.90;;;;;;5054804;28;20451;-88
2022/12/05 07:19:09;;;;;;;1014.42;82.40;;;1.30;99.90;;;;;;5057691;28;20128;-88
2022/12/05 07:21:35;;;;;;;717.38;58.85;;;1.30;99.90;;;;;;5070580;28;20040;-88
2022/12/05 07:24:01;;;;;;;761.65;61.53;;;1.30;99.90;;;;;;5069025;28;20072;-88
2022/12/05 07:26:27;;;;;;;859.47;68.80;;;1.30;99.90;;;;;;5069044;28;20024;-88
2022/12/05 07:28:55;;;;;;;464.23;47.38;;;1.30;99.90;;;;;;5066947;28;20807;-88
2022/12/05 07:31:22;;;;;;;440.92;44.15;;;1.40;99.90;;;;;;5073764;28;20371;-88
2022/12/05 07:33:51;;;;;;;669.28;60.42;;;1.40;99.90;;;;;;5075052;28;20033;-88
2022/12/05 07:36:19;;;;;;;396.10;45.25;;;1.40;99.90;;;;;;5059437;28;20033;-88
2022/12/05 07:38:46;;;;;;;953.55;77.38;;;1.40;99.90;;;;;;5069718;28;20036;-88
2022/12/05 07:41:20;;;;;;;712.40;61.97;;;1.40;99.90;;;;;;5070737;28;20037;-88
2022/12/05 07:43:46;;;;;;;489.20;47.60;;;1.40;99.90;;;;;;5071235;28;20056;-89
2022/12/05 07:46:12;;;;;;;467.80;46.67;;;1.40;99.90;;;;;;5069320;28;20063;-88
2022/12/05 07:48:38;;;;;;;467.55;51.47;;;1.40;99.90;;;;;;5070908;28;20143;-88
2022/12/05 07:51:05;;;;;;;589.63;57.60;;;1.40;99.90;;;;;;5063834;28;20080;-88
2022/12/05 07:53:32;;;;;;;653.92;58.53;;;1.40;99.90;;;;;;5069775;28;20471;-88
2022/12/05 07:56:03;;;;;;;615.30;61.17;;;1.40;99.90;;;;;;5070391;28;20031;-88
2022/12/05 07:58:29;;;;;;;196.70;35.63;;;1.50;99.90;;;;;;5055960;28;20028;-87
2022/12/05 08:01:18;;;;;;;557.50;52.90;;;1.50;99.90;;;;;;5074234;28;20043;-88
2022/12/05 08:03:45;;;;;;;663.33;55.38;;;1.60;99.90;;;;;;5070348;28;20149;-87
2022/12/05 08:06:14;;;;;;;377.25;46.05;;;1.60;99.90;;;;;;5072521;28;20060;-88
2022/12/05 08:08:40;;;;;;;184.68;33.20;;;1.60;99.90;;;;;;5071558;28;20036;-88
2022/12/05 08:11:16;;;;;;;541.47;59.92;;;1.70;99.90;;;;;;5072992;28;20075;-88
2022/12/05 08:13:42;;;;;;;629.08;56.50;;;1.70;99.90;;;;;;5070888;28;20020;-88
2022/12/05 08:16:13;;;;;;;242.63;42.45;;;1.80;99.90;;;;;;5072760;28;20028;-88
2022/12/05 08:18:39;;;;;;;;;;;1.80;99.90;;;;;;5072987;28;20028;-88
2022/12/05 08:21:11;;;;;;;267.05;40.15;;;1.90;99.90;;;;;;5072982;28;19931;-88
2022/12/05 08:23:38;;;;;;;469.23;51.67;;;1.90;99.90;;;;;;5069602;28;20032;-88
2022/12/05 08:26:06;;;;;;;265.30;37.47;;;1.90;99.90;;;;;;5055612;28;20024;-88
2022/12/05 08:28:32;;;;;;;134.70;33.22;;;1.80;99.90;;;;;;5064987;28;20082;-89
2022/12/05 08:31:09;;;;;;;496.73;49.53;;;1.90;99.90;;;;;;5085419;28;20033;-88
2022/12/05 08:33:35;;;;;;;358.60;43.15;;;1.90;99.90;;;;;;5072272;28;20044;-88
2022/12/05 08:36:02;;;;;;;231.88;41.30;;;1.80;99.90;;;;;;5071612;28;20381;-88
2022/12/05 08:38:28;;;;;;;293.50;45.47;;;1.70;99.90;;;;;;5072378;28;20077;-88
2022/12/05 08:40:53;;;;;;;389.52;51.03;;;1.70;99.90;;;;;;5057711;28;20033;-88
2022/12/05 08:43:19;;;;;;;195.05;41.75;;;1.70;99.90;;;;;;5051241;28;20021;-88
2022/12/05 08:45:52;;;;;;;122.10;35.05;;;1.80;99.90;;;;;;5080960;28;20645;-88
2022/12/05 08:48:18;;;;;;;496.15;53.45;;;1.80;99.90;;;;;;5072285;28;20025;-88
2022/12/05 08:50:44;;;;;;;516.08;52.85;;;1.80;99.90;;;;;;5076450;28;20028;-88
2022/12/05 08:53:10;;;;;;;417.60;49.22;;;1.80;99.90;;;;;;5071646;28;20021;-88
2022/12/05 08:55:36;;;;;;;259.33;44.45;;;1.80;99.90;;;;;;5066200;28;20043;-88
2022/12/05 08:58:01;;;;;;;660.15;64.38;;;1.80;99.90;;;;;;5071983;28;20434;-88
2022/12/05 09:00:27;;;;;;;799.92;73.22;;;1.90;99.90;;;;;;5072200;28;20111;-88
2022/12/05 09:02:53;;;;;;;564.67;65.05;;;1.90;99.90;;;;;;5055939;28;20032;-88
2022/12/05 09:05:38;;;;;;;713.55;63.25;;;1.90;99.90;;;;;;5066559;28;20487;-88
2022/12/05 09:08:04;;;;;;;740.17;77.20;;;1.90;99.90;;;;;;5053797;28;20506;-88
2022/12/05 09:10:48;;;;;;;545.97;59.72;;;1.90;99.90;;;;;;5071609;28;20024;-87
2022/12/05 09:13:14;;;;;;;413.38;51.55;;;1.90;99.90;;;;;;5078786;28;20036;-88
2022/12/05 09:19:02;;;;;;;483.30;64.25;;;1.90;99.90;;;;;;5070773;28;20040;-88
2022/12/05 09:21:29;;;;;;;290.20;52.65;;;1.90;99.90;;;;;;5082639;28;20170;-88
2022/12/05 09:23:57;;;;;;;325.17;57.20;;;2.00;99.90;;;;;;5071472;28;20037;-87
2022/12/05 09:26:25;;;;;;;325.77;57.70;;;1.90;99.90;;;;;;5051113;28;20025;-88
2022/12/05 09:28:51;;;;;;;300.83;54.78;;;1.90;99.90;;;;;;5084883;28;20040;-88
2022/12/05 09:31:20;;;;;;;261.42;54.97;;;2.00;99.90;;;;;;5071885;28;20025;-88
2022/12/05 09:33:47;;;;;;;257.27;55.67;;;2.00;99.90;;;;;;5066184;28;20031;-87
2022/12/05 09:36:22;;;;;;;287.17;59.85;;;2.00;99.90;;;;;;5072061;28;20025;-88
2022/12/05 09:38:49;;;;;;;268.27;56.00;;;2.10;99.90;;;;;;5071550;28;20024;-88
2022/12/05 09:42:30;;;;;;;284.88;64.15;;;2.00;99.90;;;;;;5053895;28;20036;-88
2022/12/05 09:44:40;;;;;;;236.45;53.80;;;2.00;99.90;;;;;;5060622;28;20039;-88
2022/12/05 09:47:44;;;;;;;294.23;56.35;;;2.00;99.90;;;;;;5053360;28;20039;-89
2022/12/05 09:50:16;;;;;;;233.50;56.67;;;2.00;99.90;;;;;;5042949;28;20042;-89
2022/12/05 09:53:10;;;;;;;222.05;55.78;;;2.10;99.90;;;;;;5085350;28;20024;-88
2022/12/05 09:55:39;;;;;;;246.82;61.08;;;2.10;99.90;;;;;;5063543;28;20132;-88
2022/12/05 09:58:18;;;;;;;265.85;57.78;;;2.20;99.90;;;;;;5053720;28;20032;-88
2022/12/05 10:00:45;;;;;;;250.57;56.60;;;2.20;99.90;;;;;;5050330;28;20086;-88
2022/12/05 10:03:29;;;;;;;219.85;54.40;;;2.20;99.90;;;;;;5071632;28;20078;-89
2022/12/05 10:06:08;;;;;;;246.88;53.83;;;2.20;99.90;;;;;;5058637;28;20037;-88
2022/12/05 10:08:49;;;;;;;314.08;57.33;;;2.20;99.90;;;;;;5066050;28;20025;-88
2022/12/05 10:11:26;;;;;;;234.95;53.15;;;2.20;99.90;;;;;;5066408;28;20033;-88
2022/12/05 10:14:08;;;;;;;246.75;48.92;;;2.20;99.90;;;;;;5060138;28;20039;-88
2022/12/05 10:16:49;;;;;;;194.15;48.05;;;2.20;99.90;;;;;;5050895;28;20354;-88
2022/12/05 10:19:17;;;;;;;;;;;2.10;99.90;;;;;;5064412;28;20105;-88
2022/12/05 10:21:52;;;;;;;130.35;39.60;;;2.00;99.90;;;;;;5071032;28;19966;-88
2022/12/05 10:24:27;;;;;;;145.43;40.50;;;2.00;99.90;;;;;;5073305;28;20506;-87
2022/12/05 10:27:03;;;;;;;151.40;40.90;;;2.00;99.90;;;;;;5070528;28;20807;-88
2022/12/05 10:29:39;;;;;;;164.88;44.53;;;1.90;99.90;;;;;;5054893;28;20115;-88
2022/12/05 10:32:22;;;;;;;166.10;41.72;;;1.90;99.90;;;;;;5067238;28;20041;-88
2022/12/05 10:34:49;;;;;;;397.92;52.25;;;1.90;99.90;;;;;;5070656;28;20108;-88
2022/12/05 10:37:23;;;;;;;232.80;48.33;;;2.00;99.90;;;;;;5069583;28;20078;-88
2022/12/05 10:39:50;;;;;;;203.68;46.90;;;2.00;99.90;;;;;;5055068;28;20431;-88
2022/12/05 10:42:30;;;;;;;180.43;44.13;;;2.00;99.90;;;;;;5073524;28;20044;-89
2022/12/05 10:44:58;;;;;;;160.82;43.47;;;2.10;99.90;;;;;;5063561;28;20036;-87
2022/12/05 10:47:24;;;;;;;182.60;41.15;;;2.10;99.90;;;;;;5073293;28;20024;-89
2022/12/05 10:49:51;;;;;;;157.55;47.10;;;2.10;99.90;;;;;;5069816;28;20040;-87
2022/12/05 10:52:17;;;;;;;187.55;45.38;;;2.00;99.90;;;;;;5088746;28;20037;-88
2022/12/05 10:54:48;;;;;;;156.38;39.03;;;2.10;99.90;;;;;;5068188;28;20529;-88
2022/12/05 10:57:23;;;;;;;160.50;44.63;;;2.10;99.90;;;;;;5041989;28;20025;-88
2022/12/05 10:59:49;;;;;;;124.47;36.35;;;2.00;99.90;;;;;;5074402;28;20178;-88
2022/12/05 11:02:25;;;;;;;181.90;43.20;;;2.10;99.90;;;;;;5073411;28;20467;-89
2022/12/05 11:04:52;;;;;;;142.65;41.47;;;2.10;99.90;;;;;;5079587;28;20036;-89
2022/12/05 11:07:48;;;;;;;143.50;42.67;;;2.30;99.90;;;;;;5070434;28;20070;-88
2022/12/05 11:10:32;;;;;;;155.52;44.28;;;2.20;99.90;;;;;;5064276;28;20690;-88
2022/12/05 11:12:59;;;;;;;209.27;42.83;;;2.30;99.90;;;;;;5071750;28;20119;-89
2022/12/05 11:15:29;;;;;;;167.63;40.72;;;2.30;99.90;;;;;;5073978;28;20017;-89
2022/12/05 11:18:15;;;;;;;177.17;45.37;;;2.30;99.90;;;;;;5082965;28;20033;-89
2022/12/05 11:20:41;;;;;;;271.30;51.35;;;2.30;99.90;;;;;;5055996;28;20278;-88
2022/12/05 11:23:20;;;;;;;304.27;50.20;;;2.20;99.90;;;;;;5072670;28;20021;-88
2022/12/05 11:25:47;;;;;;;318.20;53.33;;;2.20;99.90;;;;;;5072580;28;20063;-88
2022/12/05 11:28:16;;;;;;;320.80;50.15;;;2.20;99.90;;;;;;5068856;28;20024;-89
2022/12/05 11:31:13;;;;;;;219.20;45.33;;;2.20;99.90;;;;;;5066805;28;20491;-88
2022/12/05 11:33:39;;;;;;;409.13;54.47;;;2.30;99.90;;;;;;5082329;28;20121;-88
2022/12/05 11:36:19;;;;;;;180.20;41.47;;;2.30;99.90;;;;;;5064987;28;20032;-88
2022/12/05 11:38:44;;;;;;;302.52;49.30;;;2.30;99.90;;;;;;5051037;28;20669;-88
2022/12/05 11:41:25;;;;;;;774.00;73.80;;;2.30;99.90;;;;;;5063839;28;20024;-89
2022/12/05 11:44:28;;;;;;;552.95;62.08;;;2.20;99.90;;;;;;5044051;28;20037;-88
2022/12/05 11:47:11;;;;;;;481.42;55.72;;;2.20;99.90;;;;;;5080929;28;20469;-89
2022/12/05 11:49:55;;;;;;;498.42;58.88;;;2.20;99.90;;;;;;5083415;28;20025;-89
2022/12/05 11:52:32;;;;;;;612.72;69.20;;;2.30;99.90;;;;;;5043668;28;20139;-88
2022/12/05 11:55:08;;;;;;;379.88;48.50;;;2.30;99.90;;;;;;5081138;28;20053;-88
2022/12/05 11:57:40;;;;;;;340.42;48.08;;;2.30;99.90;;;;;;5073284;28;20033;-88
2022/12/05 12:00:15;;;;;;;339.77;49.47;;;2.30;99.90;;;;;;5066639;28;20203;-88
2022/12/05 12:03:02;;;;;;;412.45;56.00;;;2.30;99.90;;;;;;5072466;28;20040;-88
2022/12/05 12:05:35;;;;;;;194.80;40.42;;;2.40;99.90;;;;;;5047504;28;20025;-88
2022/12/05 12:08:10;;;;;;;182.57;43.90;;;2.50;99.90;;;;;;5052852;28;20090;-89
2022/12/05 12:11:03;;;;;;;139.07;38.38;;;2.50;99.90;;;;;;5063457;28;20086;-88
2022/12/05 12:13:44;;;;;;;131.40;39.50;;;2.50;99.90;;;;;;5082036;28;20048;-88
2022/12/05 12:16:23;;;;;;;108.82;35.67;;;2.60;99.90;;;;;;5053555;28;20029;-88
2022/12/05 12:18:55;;;;;;;132.25;41.83;;;2.70;99.90;;;;;;5083899;28;20063;-88
2022/12/05 12:22:02;;;;;;;124.68;40.42;;;2.90;99.90;;;;;;5059599;28;20027;-88
2022/12/05 12:24:46;;;;;;;138.32;40.70;;;3.00;99.90;;;;;;5001136;28;20034;-88
2022/12/05 12:27:33;;;;;;;130.93;38.42;;;3.20;99.90;;;;;;4992683;28;20039;-88
2022/12/05 12:30:26;;;;;;;87.60;32.60;;;3.20;99.90;;;;;;5042618;28;20543;-88
2022/12/05 12:33:09;;;;;;;110.57;34.35;;;3.10;99.90;;;;;;5057862;28;20124;-88
2022/12/05 12:36:06;;;;;;;99.28;36.72;;;3.20;99.90;;;;;;5081588;28;20068;-88
2022/12/05 12:38:48;;;;;;;79.43;30.55;;;3.20;99.90;;;;;;5060710;28;20028;-88
2022/12/05 12:41:31;;;;;;;91.32;33.47;;;3.10;99.90;;;;;;5074457;28;20028;-88
2022/12/05 12:44:46;;;;;;;87.65;32.95;;;3.10;99.90;;;;;;5069866;28;20039;-88
2022/12/05 12:47:27;;;;;;;84.25;30.17;;;3.10;99.90;;;;;;5056060;28;20028;-88
2022/12/05 12:49:58;;;;;;;89.70;36.80;;;3.10;99.90;;;;;;5062601;28;20024;-88
2022/12/05 12:52:36;;;;;;;77.78;28.95;;;3.10;99.90;;;;;;5065709;28;20051;-88
2022/12/05 12:55:28;;;;;;;72.68;30.25;;;3.10;99.90;;;;;;5049663;28;20028;-88
2022/12/05 12:58:29;;;;;;;82.03;31.15;;;3.20;99.90;;;;;;5068460;28;20036;-89
2022/12/05 13:01:07;;;;;;;84.25;31.73;;;3.20;99.90;;;;;;5060198;28;20075;-89